Time;durP1;ratioP1;P1;durP2;ratioP2;P2;SDS_P1;SDS_P2;PMS_P1;PMS_P2;Temp;Humidity;BMP_temperature;BMP_pressure;BME280_temperature;BME280_humidity;BME280_pressure;Samples;Min_cycle;Max_cycle;Signal;HPM_P1;HPM_P2
2021/11/11 00:00:22;;;;;;;4.20;2.93;;;;;;;;;;4995179;28;20254;-87
2021/11/11 00:02:50;;;;;;;3.23;2.23;;;;;;;;;;4995090;28;20203;-87
2021/11/11 00:05:18;;;;;;;4.50;2.70;;;;;;;;;;4995360;28;20223;-87
2021/11/11 00:07:45;;;;;;;7.70;4.03;;;;;;;;;;4995157;28;20207;-87
2021/11/11 00:10:13;;;;;;;3.40;3.10;;;;;;;;;;4995199;28;20219;-87
2021/11/11 00:12:41;;;;;;;5.10;3.47;;;;;;;;;;4995006;28;20196;-86
2021/11/11 00:15:12;;;;;;;4.47;2.93;;;;;;;;;;4994963;28;20282;-87
2021/11/11 00:17:40;;;;;;;2.43;2.23;;;;;;;;;;4994971;28;20195;-87
2021/11/11 00:20:08;;;;;;;3.63;2.40;;;;;;;;;;4994884;28;20199;-86
2021/11/11 00:22:36;;;;;;;3.73;2.80;;;;;;;;;;4995052;28;20196;-86
2021/11/11 00:25:04;;;;;;;3.03;2.10;;;;;;;;;;4994815;28;20291;-88
2021/11/11 00:27:32;;;;;;;2.87;2.53;;;;;;;;;;4994903;28;20196;-87
2021/11/11 00:29:59;;;;;;;6.50;2.50;;;;;;;;;;4994598;28;20203;-87
2021/11/11 00:32:28;;;;;;;3.03;2.27;;;;;;;;;;4994714;28;20200;-87
2021/11/11 00:34:55;;;;;;;4.33;3.90;;;;;;;;;;4994727;28;20232;-86
2021/11/11 00:37:23;;;;;;;3.60;3.20;;;;;;;;;;4994401;28;20287;-87
2021/11/11 00:39:51;;;;;;;5.17;3.00;;;;;;;;;;4994554;28;20204;-86
2021/11/11 00:42:19;;;;;;;4.30;3.07;;;;;;;;;;4994379;28;20752;-87
2021/11/11 00:44:46;;;;;;;4.67;3.50;;;;;;;;;;4994433;28;20239;-86
2021/11/11 00:47:14;;;;;;;6.30;3.40;;;;;;;;;;4993946;28;20236;-86
2021/11/11 00:49:43;;;;;;;6.43;3.60;;;;;;;;;;4994129;28;20211;-86
2021/11/11 00:52:11;;;;;;;4.57;3.00;;;;;;;;;;4994036;28;20196;-87
2021/11/11 00:54:39;;;;;;;6.37;2.77;;;;;;;;;;4994370;28;20220;-86
2021/11/11 00:57:07;;;;;;;3.13;2.93;;;;;;;;;;4994096;28;20756;-86
2021/11/11 00:59:34;;;;;;;4.57;4.17;;;;;;;;;;4994467;28;20201;-88
2021/11/11 01:02:06;;;;;;;6.40;3.00;;;;;;;;;;4993806;28;20197;-86
2021/11/11 01:04:34;;;;;;;3.80;3.07;;;;;;;;;;4993948;28;20642;-86
2021/11/11 01:07:02;;;;;;;3.27;2.97;;;;;;;;;;4993739;28;20290;-86
2021/11/11 01:09:30;;;;;;;4.80;3.47;;;;;;;;;;4993843;28;20204;-86
2021/11/11 01:11:58;;;;;;;2.67;2.43;;;;;;;;;;4994027;28;20677;-86
2021/11/11 01:14:25;;;;;;;3.83;2.73;;;;;;;;;;4994072;28;20567;-87
2021/11/11 01:16:53;;;;;;;3.23;2.93;;;;;;;;;;4993483;28;20235;-86
2021/11/11 01:19:21;;;;;;;3.83;2.90;;;;;;;;;;4993745;28;20246;-86
2021/11/11 01:21:49;;;;;;;2.90;2.70;;;;;;;;;;4993420;28;20294;-86
2021/11/11 01:24:17;;;;;;;6.07;3.13;;;;;;;;;;4993484;28;20212;-86
2021/11/11 01:26:45;;;;;;;2.87;2.57;;;;;;;;;;4993414;28;20207;-86
2021/11/11 01:29:12;;;;;;;3.57;2.70;;;;;;;;;;4993783;28;20196;-86
2021/11/11 01:31:40;;;;;;;4.20;2.73;;;;;;;;;;4993426;28;20192;-86
2021/11/11 01:34:07;;;;;;;3.23;2.60;;;;;;;;;;4993502;28;20933;-86
2021/11/11 01:36:34;;;;;;;2.87;2.60;;;;;;;;;;4993473;28;20589;-87
2021/11/11 01:39:02;;;;;;;4.00;2.80;;;;;;;;;;4993180;28;20200;-86
2021/11/11 01:41:31;;;;;;;3.53;2.60;;;;;;;;;;4993142;28;20299;-86
2021/11/11 01:43:58;;;;;;;3.10;2.80;;;;;;;;;;4993456;28;20574;-86
2021/11/11 01:46:26;;;;;;;3.67;3.20;;;;;;;;;;4993033;28;20240;-86
2021/11/11 01:48:53;;;;;;;4.13;2.87;;;;;;;;;;4992811;28;20200;-86
2021/11/11 01:51:22;;;;;;;3.17;2.87;;;;;;;;;;4984690;28;20213;-86
2021/11/11 01:53:50;;;;;;;3.13;2.73;;;;;;;;;;4973661;28;20207;-86
2021/11/11 01:56:18;;;;;;;2.83;2.53;;;;;;;;;;4973627;28;20224;-86
2021/11/11 01:58:46;;;;;;;4.37;3.73;;;;;;;;;;4973644;28;20211;-86
2021/11/11 02:01:14;;;;;;;4.07;3.13;;;;;;;;;;4973672;28;20201;-86
2021/11/11 02:03:41;;;;;;;6.70;4.83;;;;;;;;;;4973785;28;20255;-86
2021/11/11 02:06:08;;;;;;;7.63;4.30;;;;;;;;;;4973558;28;20203;-87
2021/11/11 02:08:36;;;;;;;6.30;4.53;;;;;;;;;;4973556;28;20247;-86
2021/11/11 02:11:03;;;;;;;9.90;6.93;;;;;;;;;;4973404;28;20205;-86
2021/11/11 02:13:30;;;;;;;8.13;5.37;;;;;;;;;;4973495;28;20290;-86
2021/11/11 02:15:59;;;;;;;4.47;4.07;;;;;;;;;;4973821;28;20225;-87
2021/11/11 02:18:26;;;;;;;5.03;4.00;;;;;;;;;;4973279;28;20211;-86
2021/11/11 02:20:55;;;;;;;5.73;4.27;;;;;;;;;;4986526;28;20302;-86
2021/11/11 02:23:22;;;;;;;5.00;3.43;;;;;;;;;;4993096;28;20208;-87
2021/11/11 02:25:50;;;;;;;4.47;3.57;;;;;;;;;;4992852;28;20295;-86
2021/11/11 02:28:19;;;;;;;7.77;3.97;;;;;;;;;;4996775;28;20211;-86
2021/11/11 02:30:48;;;;;;;4.60;4.03;;;;;;;;;;4996587;28;20219;-86
2021/11/11 02:33:18;;;;;;;3.17;2.83;;;;;;;;;;4996575;28;20210;-86
2021/11/11 02:35:45;;;;;;;4.50;3.90;;;;;;;;;;4996152;28;20224;-86
2021/11/11 02:38:14;;;;;;;3.20;2.87;;;;;;;;;;4996499;28;20302;-86
2021/11/11 02:40:42;;;;;;;3.77;3.17;;;;;;;;;;4996756;28;20203;-86
2021/11/11 02:43:11;;;;;;;4.13;3.50;;;;;;;;;;4996327;28;20704;-87
2021/11/11 02:45:40;;;;;;;5.27;3.60;;;;;;;;;;4996512;28;20628;-86
2021/11/11 02:48:08;;;;;;;3.87;3.47;;;;;;;;;;4996451;28;20196;-86
2021/11/11 02:50:36;;;;;;;6.47;4.33;;;;;;;;;;4996253;28;20215;-86
2021/11/11 02:53:05;;;;;;;4.13;3.30;;;;;;;;;;4996155;28;20201;-85
2021/11/11 02:55:34;;;;;;;4.03;3.63;;;;;;;;;;4996578;28;20228;-86
2021/11/11 02:58:02;;;;;;;4.40;4.00;;;;;;;;;;4996152;28;20673;-86
2021/11/11 03:00:34;;;;;;;6.67;3.30;;;;;;;;;;4996528;28;20280;-86
2021/11/11 03:03:01;;;;;;;3.17;2.70;;;;;;;;;;4996182;28;20185;-86
2021/11/11 03:05:31;;;;;;;5.57;3.00;;;;;;;;;;4996424;28;20603;-85
2021/11/11 03:07:58;;;;;;;3.77;3.20;;;;;;;;;;4995926;28;20645;-84
2021/11/11 03:10:27;;;;;;;4.57;3.43;;;;;;;;;;4995653;28;20665;-84
2021/11/11 03:12:57;;;;;;;3.87;2.83;;;;;;;;;;4995524;28;20230;-85
2021/11/11 03:15:26;;;;;;;4.80;3.20;;;;;;;;;;4995792;28;20609;-85
2021/11/11 03:17:53;;;;;;;4.03;2.87;;;;;;;;;;4995968;28;20584;-86
2021/11/11 03:20:21;;;;;;;74.43;37.93;;;;;;;;;;4995597;28;20291;-85
2021/11/11 03:22:50;;;;;;;41.97;30.60;;;;;;;;;;4995459;28;20204;-86
2021/11/11 03:25:19;;;;;;;26.23;19.07;;;;;;;;;;4996173;28;20627;-86
2021/11/11 03:27:47;;;;;;;19.43;15.93;;;;;;;;;;4995444;28;20246;-85
2021/11/11 03:30:17;;;;;;;24.80;21.10;;;;;;;;;;4995438;28;20689;-86
2021/11/11 03:32:45;;;;;;;18.47;15.97;;;;;;;;;;4995374;28;20286;-86
2021/11/11 03:35:13;;;;;;;8.47;7.37;;;;;;;;;;4995524;28;20204;-85
2021/11/11 03:37:42;;;;;;;6.83;5.80;;;;;;;;;;4994841;28;20279;-86
2021/11/11 03:40:12;;;;;;;5.67;4.97;;;;;;;;;;4994938;28;20200;-86
2021/11/11 03:42:39;;;;;;;5.53;5.00;;;;;;;;;;4995267;28;20732;-86
2021/11/11 03:45:09;;;;;;;10.47;7.90;;;;;;;;;;4995752;28;20645;-85
2021/11/11 03:47:38;;;;;;;7.50;6.70;;;;;;;;;;4994858;28;20327;-86
2021/11/11 03:50:07;;;;;;;9.80;6.17;;;;;;;;;;4995033;28;20212;-86
2021/11/11 03:52:34;;;;;;;7.60;3.87;;;;;;;;;;4995299;28;20197;-86
2021/11/11 03:55:03;;;;;;;4.37;3.70;;;;;;;;;;4993962;28;20649;-87
2021/11/11 03:57:30;;;;;;;6.07;4.70;;;;;;;;;;4995585;28;20262;-86
2021/11/11 03:59:57;;;;;;;17.07;8.40;;;;;;;;;;4995008;28;20208;-86
2021/11/11 04:02:25;;;;;;;10.37;6.00;;;;;;;;;;4994387;28;20254;-86
2021/11/11 04:04:54;;;;;;;6.07;5.27;;;;;;;;;;4994919;28;20633;-86
2021/11/11 04:07:22;;;;;;;6.50;5.10;;;;;;;;;;4995849;28;20292;-87
2021/11/11 04:09:49;;;;;;;5.47;4.43;;;;;;;;;;4994415;28;20235;-87
2021/11/11 04:12:16;;;;;;;4.93;3.70;;;;;;;;;;4994683;28;20204;-87
2021/11/11 04:14:44;;;;;;;4.30;3.90;;;;;;;;;;4994562;28;20708;-87
2021/11/11 04:17:12;;;;;;;5.47;3.90;;;;;;;;;;4994419;28;20230;-86
2021/11/11 04:19:39;;;;;;;6.10;4.20;;;;;;;;;;4994539;28;20669;-88
2021/11/11 04:22:08;;;;;;;6.40;4.70;;;;;;;;;;4994591;28;20246;-87
2021/11/11 04:24:36;;;;;;;6.17;4.80;;;;;;;;;;4994876;28;20207;-87
2021/11/11 04:27:06;;;;;;;6.97;4.00;;;;;;;;;;4994403;28;20200;-87
2021/11/11 04:29:34;;;;;;;3.97;3.33;;;;;;;;;;4994544;28;20590;-87
2021/11/11 04:32:03;;;;;;;4.67;3.33;;;;;;;;;;4994453;28;20196;-87
2021/11/11 04:34:33;;;;;;;4.33;3.43;;;;;;;;;;4994828;28;20200;-87
2021/11/11 04:43:11;;;;;;;4.27;3.10;;;;;;;;;;4994666;28;20188;-86
2021/11/11 04:59:52;;;;;;;6.97;5.23;;;;;;;;;;4975257;28;20281;-87
2021/11/11 05:05:08;;;;;;;11.27;6.83;;;;;;;;;;4969577;28;20213;-88
2021/11/11 05:07:35;;;;;;;12.27;8.27;;;;;;;;;;4974428;28;20226;-88
2021/11/11 05:10:02;;;;;;;8.60;7.70;;;;;;;;;;4974775;28;20745;-88
2021/11/11 05:12:31;;;;;;;9.03;6.33;;;;;;;;;;4974204;28;20204;-87
2021/11/11 05:14:58;;;;;;;9.13;7.57;;;;;;;;;;4974852;28;20245;-87
2021/11/11 05:17:25;;;;;;;8.57;7.20;;;;;;;;;;4974674;28;20224;-88
2021/11/11 05:19:53;;;;;;;6.03;5.23;;;;;;;;;;4988663;28;20216;-87
2021/11/11 05:22:21;;;;;;;6.27;4.47;;;;;;;;;;4993970;28;20239;-88
2021/11/11 05:24:48;;;;;;;6.27;4.63;;;;;;;;;;4993965;28;20192;-88
2021/11/11 05:27:17;;;;;;;6.67;4.20;;;;;;;;;;4993665;28;20669;-88
2021/11/11 05:29:45;;;;;;;5.90;4.37;;;;;;;;;;4994056;28;20709;-88
2021/11/11 05:32:13;;;;;;;8.13;6.03;;;;;;;;;;4994206;28;20247;-87
2021/11/11 05:34:40;;;;;;;6.87;5.40;;;;;;;;;;4993499;28;20207;-88
2021/11/11 05:37:07;;;;;;;13.00;5.50;;;;;;;;;;4994009;28;20316;-88
2021/11/11 05:39:35;;;;;;;11.50;7.70;;;;;;;;;;4994093;28;20727;-88
2021/11/11 05:42:02;;;;;;;20.63;13.50;;;;;;;;;;4993788;28;20661;-87
2021/11/11 05:44:29;;;;;;;17.87;11.43;;;;;;;;;;4993948;28;20747;-88
2021/11/11 05:46:58;;;;;;;10.97;9.50;;;;;;;;;;4993581;28;20276;-88
2021/11/11 05:49:26;;;;;;;12.17;8.83;;;;;;;;;;4993514;28;20200;-87
2021/11/11 05:51:54;;;;;;;9.23;8.20;;;;;;;;;;4993536;28;20210;-88
2021/11/11 05:54:22;;;;;;;10.53;7.67;;;;;;;;;;4993553;28;20369;-88
2021/11/11 05:56:49;;;;;;;6.10;5.50;;;;;;;;;;4993494;28;20224;-88
2021/11/11 05:59:16;;;;;;;7.73;5.73;;;;;;;;;;4994261;28;20204;-88
2021/11/11 06:01:43;;;;;;;7.30;6.60;;;;;;;;;;4993459;28;20203;-88
2021/11/11 06:04:12;;;;;;;9.23;7.40;;;;;;;;;;4993801;28;20196;-88
2021/11/11 06:06:39;;;;;;;7.47;6.73;;;;;;;;;;4993495;28;20208;-88
2021/11/11 06:09:07;;;;;;;5.63;4.83;;;;;;;;;;4993597;28;20203;-88
2021/11/11 06:11:34;;;;;;;5.97;4.90;;;;;;;;;;4993303;28;20197;-88
2021/11/11 06:14:02;;;;;;;6.67;5.03;;;;;;;;;;4993939;28;20279;-88
2021/11/11 06:16:29;;;;;;;8.33;6.27;;;;;;;;;;4993414;28;20228;-88
2021/11/11 06:18:56;;;;;;;6.93;5.53;;;;;;;;;;4993748;28;20203;-87
2021/11/11 06:21:26;;;;;;;7.27;6.20;;;;;;;;;;4993394;28;20200;-88
2021/11/11 06:23:54;;;;;;;7.10;6.33;;;;;;;;;;4993345;28;20203;-89
2021/11/11 06:26:22;;;;;;;13.57;9.20;;;;;;;;;;4993368;28;20209;-90
2021/11/11 06:28:50;;;;;;;10.63;9.10;;;;;;;;;;4993605;28;20200;-90
2021/11/11 06:31:18;;;;;;;8.20;7.40;;;;;;;;;;4993707;28;20216;-93
2021/11/11 06:33:45;;;;;;;6.93;6.23;;;;;;;;;;4993460;28;20266;-91
2021/11/11 06:36:13;;;;;;;12.70;8.57;;;;;;;;;;4993558;28;20661;-92
2021/11/11 06:38:42;;;;;;;16.17;12.30;;;;;;;;;;4993111;28;20232;-92
2021/11/11 06:41:09;;;;;;;11.53;9.07;;;;;;;;;;4993052;28;20200;-93
2021/11/11 06:43:37;;;;;;;9.83;8.23;;;;;;;;;;4993851;28;20270;-93
2021/11/11 06:46:05;;;;;;;10.50;6.90;;;;;;;;;;4992851;28;20278;-94
2021/11/11 06:48:33;;;;;;;8.70;7.57;;;;;;;;;;4993228;28;20195;-93
2021/11/11 06:51:00;;;;;;;8.33;7.53;;;;;;;;;;4993803;28;20735;-96
2021/11/11 06:53:28;;;;;;;8.73;7.37;;;;;;;;;;4993242;28;20239;-95
2021/11/11 06:55:56;;;;;;;7.47;6.77;;;;;;;;;;4993272;28;20224;-96
2021/11/11 06:58:24;;;;;;;7.70;6.93;;;;;;;;;;4993266;28;20709;-96
2021/11/11 07:00:54;;;;;;;10.80;5.47;;;;;;;;;;4993255;28;20200;-96
2021/11/11 07:03:21;;;;;;;6.00;5.40;;;;;;;;;;4993340;28;20196;-96
2021/11/11 07:05:49;;;;;;;7.07;5.70;;;;;;;;;;4993442;28;20215;-96
2021/11/11 07:08:16;;;;;;;5.73;5.17;;;;;;;;;;4992905;28;20227;-96
2021/11/11 07:10:48;;;;;;;8.20;5.80;;;;;;;;;;4993399;28;20211;-96
2021/11/11 07:13:18;;;;;;;10.07;5.00;;;;;;;;;;4993737;28;20212;-96
2021/11/11 07:15:46;;;;;;;5.30;4.57;;;;;;;;;;4997160;28;20227;-96
2021/11/11 07:18:14;;;;;;;8.10;5.33;;;;;;;;;;4996720;28;20290;-96
2021/11/11 07:20:44;;;;;;;7.80;3.97;;;;;;;;;;4998557;28;20200;-96
2021/11/11 07:23:12;;;;;;;3.53;3.23;;;;;;;;;;4997341;28;20693;-96
2021/11/11 07:25:39;;;;;;;6.53;4.10;;;;;;;;;;4996943;28;20295;-96
2021/11/11 07:28:07;;;;;;;3.73;3.33;;;;;;;;;;4997792;28;20219;-96
2021/11/11 07:30:36;;;;;;;6.00;3.90;;;;;;;;;;5000011;28;20204;-96
2021/11/11 07:33:04;;;;;;;7.67;4.33;;;;;;;;;;5001463;28;20199;-96
2021/11/11 07:35:33;;;;;;;3.30;3.00;;;;;;;;;;5005532;28;20200;-96
2021/11/11 07:38:05;;;;;;;5.80;3.50;;;;;;;;;;5002761;28;20292;-96
2021/11/11 07:40:33;;;;;;;3.90;3.43;;;;;;;;;;5003857;28;20196;-96
2021/11/11 07:43:00;;;;;;;4.50;3.67;;;;;;;;;;5001697;28;20246;-96
2021/11/11 07:45:29;;;;;;;7.37;3.30;;;;;;;;;;5004238;28;20203;-96
2021/11/11 07:48:01;;;;;;;6.93;4.80;;;;;;;;;;4996777;28;20258;-96
2021/11/11 07:50:29;;;;;;;6.33;3.93;;;;;;;;;;4996818;28;20227;-96
2021/11/11 07:52:59;;;;;;;8.33;4.50;;;;;;;;;;4996600;28;20197;-96
2021/11/11 07:55:27;;;;;;;9.90;5.10;;;;;;;;;;4997803;28;20211;-96
2021/11/11 07:57:55;;;;;;;10.10;4.60;;;;;;;;;;4996571;28;20231;-96
2021/11/11 08:00:23;;;;;;;10.40;3.97;;;;;;;;;;4996244;28;20200;-96
2021/11/11 08:02:50;;;;;;;5.47;3.47;;;;;;;;;;4996046;28;20227;-96
2021/11/11 08:05:20;;;;;;;3.47;3.03;;;;;;;;;;4997143;28;20204;-96
2021/11/11 08:07:49;;;;;;;2.83;2.57;;;;;;;;;;4999229;28;20268;-96
2021/11/11 08:10:17;;;;;;;3.30;3.00;;;;;;;;;;5000408;28;20193;-96
2021/11/11 08:12:45;;;;;;;3.37;2.70;;;;;;;;;;4998785;28;20196;-96
2021/11/11 08:15:14;;;;;;;3.33;3.03;;;;;;;;;;4998153;28;20208;-96
2021/11/11 08:17:42;;;;;;;3.07;2.70;;;;;;;;;;5002358;28;20294;-96
2021/11/11 08:20:11;;;;;;;5.13;2.90;;;;;;;;;;4997831;28;20211;-96
2021/11/11 08:22:41;;;;;;;3.67;3.23;;;;;;;;;;4997723;28;20196;-96
2021/11/11 08:25:10;;;;;;;4.13;3.40;;;;;;;;;;4998268;28;20223;-96
2021/11/11 08:27:39;;;;;;;3.50;3.20;;;;;;;;;;4998241;28;20198;-96
2021/11/11 08:30:08;;;;;;;5.13;3.03;;;;;;;;;;5000406;28;20212;-96
2021/11/11 08:32:36;;;;;;;6.40;3.17;;;;;;;;;;4997213;28;20228;-96
2021/11/11 08:35:04;;;;;;;4.10;3.20;;;;;;;;;;4997819;28;20224;-96
2021/11/11 08:37:32;;;;;;;7.33;3.33;;;;;;;;;;4996072;28;20663;-96
2021/11/11 08:40:01;;;;;;;3.67;3.37;;;;;;;;;;4998963;28;20223;-96
2021/11/11 08:42:28;;;;;;;4.70;2.90;;;;;;;;;;4995671;28;20219;-96
2021/11/11 08:44:57;;;;;;;2.67;2.47;;;;;;;;;;4996545;28;20200;-96
2021/11/11 08:47:24;;;;;;;3.27;2.90;;;;;;;;;;5001894;28;20296;-96
2021/11/11 08:49:52;;;;;;;2.80;2.60;;;;;;;;;;4997660;28;20196;-96
2021/11/11 08:52:20;;;;;;;3.80;2.70;;;;;;;;;;4996766;28;20287;-96
2021/11/11 08:54:49;;;;;;;3.13;2.83;;;;;;;;;;4996903;28;20192;-96
2021/11/11 08:57:18;;;;;;;5.40;3.47;;;;;;;;;;4997017;28;20234;-96
2021/11/11 08:59:51;;;;;;;3.37;3.07;;;;;;;;;;4995972;28;20254;-96
2021/11/11 09:02:19;;;;;;;3.10;2.80;;;;;;;;;;5000635;28;20268;-96
2021/11/11 09:04:47;;;;;;;3.20;2.80;;;;;;;;;;5002640;28;20200;-96
2021/11/11 09:07:14;;;;;;;4.27;3.00;;;;;;;;;;5006184;28;20203;-96
2021/11/11 09:09:43;;;;;;;10.67;7.80;;;;;;;;;;5008118;28;20283;-96
2021/11/11 09:12:11;;;;;;;3.50;2.50;;;;;;;;;;5008066;28;20200;-96
2021/11/11 09:14:40;;;;;;;3.30;2.30;;;;;;;;;;5004750;28;20240;-96
2021/11/11 09:17:08;;;;;;;4.30;3.13;;;;;;;;;;5008291;28;20231;-96
2021/11/11 09:19:35;;;;;;;3.40;2.90;;;;;;;;;;5006193;28;20223;-96
2021/11/11 09:22:04;;;;;;;5.00;2.40;;;;;;;;;;5007224;28;20211;-96
2021/11/11 09:24:31;;;;;;;6.70;3.00;;;;;;;;;;5011660;28;20227;-96
2021/11/11 09:27:02;;;;;;;3.70;3.17;;;;;;;;;;5004808;28;20200;-96
2021/11/11 09:29:29;;;;;;;3.47;2.80;;;;;;;;;;5012955;28;20207;-96
2021/11/11 09:31:59;;;;;;;4.33;2.50;;;;;;;;;;5012762;28;20208;-96
2021/11/11 09:34:26;;;;;;;5.30;2.67;;;;;;;;;;5012600;28;20188;-96
2021/11/11 09:36:54;;;;;;;3.80;2.97;;;;;;;;;;5012426;28;20202;-96
2021/11/11 09:39:24;;;;;;;3.93;3.20;;;;;;;;;;5011295;28;20208;-96
2021/11/11 09:41:56;;;;;;;4.50;3.57;;;;;;;;;;5010653;28;20192;-96
2021/11/11 09:44:26;;;;;;;4.83;3.30;;;;;;;;;;5012805;28;20214;-96
2021/11/11 09:46:54;;;;;;;2.97;2.70;;;;;;;;;;5015796;28;20246;-96
2021/11/11 09:49:23;;;;;;;6.60;3.60;;;;;;;;;;5014739;28;20232;-96
2021/11/11 09:51:52;;;;;;;10.20;5.87;;;;;;;;;;5472212;22;20222;-96
2021/11/11 09:59:45;;;;;;;9.23;4.00;;;;;;;;;;5038323;28;20190;-96
2021/11/11 10:02:13;;;;;;;4.40;3.50;;;;;;;;;;5034287;28;20184;-96
2021/11/11 10:04:42;;;;;;;4.20;3.47;;;;;;;;;;5144625;22;20197;-96
2021/11/11 10:07:10;;;;;;;5.03;4.00;;;;;;;;;;5536850;22;20238;-96
2021/11/11 10:17:41;;;;;;;4.07;3.23;;;;;;;;;;5750778;23;20210;-96
2021/11/11 10:20:12;;;;;;;5.17;3.77;;;;;;;;;;5387132;23;20224;-96
2021/11/11 10:22:42;;;;;;;3.57;3.27;;;;;;;;;;5833964;23;20225;-96
2021/11/11 10:25:12;;;;;;;5.50;4.53;;;;;;;;;;5712836;23;20236;-96
2021/11/11 10:35:28;;;;;;;3.63;2.73;;;;;;;;;;5658801;23;20222;-96
2021/11/11 10:40:40;;;;;;;3.17;2.87;;;;;;;;;;6074733;23;20225;31
2021/11/11 10:43:10;;;;;;;7.03;3.60;;;;;;;;;;5630397;23;20223;-96
2021/11/11 10:45:40;;;;;;;6.00;4.30;;;;;;;;;;5084408;23;20236;-96
2021/11/11 10:50:45;;;;;;;5.13;3.40;;;;;;;;;;5601612;23;20231;-96
2021/11/11 10:53:17;;;;;;;8.60;2.67;;;;;;;;;;5794664;23;20238;-96
2021/11/11 10:55:49;;;;;;;3.77;3.27;;;;;;;;;;5698907;23;20213;-96
2021/11/11 10:58:18;;;;;;;7.27;3.60;;;;;;;;;;5891696;23;20219;-96
2021/11/11 11:00:49;;;;;;;4.03;3.00;;;;;;;;;;5210399;23;20220;-96
2021/11/11 11:03:18;;;;;;;3.17;2.87;;;;;;;;;;5468963;22;20237;-96
2021/11/11 13:06:49;;;;;;;2.93;2.73;;;;;;;;;;4954273;29;20234;-96
2021/11/11 13:09:28;;;;;;;2.80;2.60;;;;;;;;;;5100438;23;20249;-96
2021/11/11 13:11:59;;;;;;;6.93;4.20;;;;;;;;;;4978267;28;20190;-96
2021/11/11 13:14:28;;;;;;;2.50;2.30;;;;;;;;;;4996423;23;20247;-96
2021/11/11 13:17:14;;;;;;;3.50;2.63;;;;;;;;;;4996794;28;20238;-96
2021/11/11 13:19:44;;;;;;;3.37;2.57;;;;;;;;;;5131862;23;20860;-96
2021/11/11 13:22:18;;;;;;;4.80;3.47;;;;;;;;;;5016876;28;20195;-96
2021/11/11 13:25:12;;;;;;;6.03;3.03;;;;;;;;;;5504871;23;20280;-96
2021/11/11 13:59:27;;;;;;;6.30;4.40;;;;;;;;;;5083511;23;20236;-96
2021/11/11 15:04:11;;;;;;;7.57;6.97;;;;;;;;;;5714689;23;20231;-96
2021/11/11 15:16:45;;;;;;;7.63;6.60;;;;;;;;;;5006853;28;20259;-96
2021/11/11 16:01:30;;;;;;;12.43;9.20;;;;;;;;;;4983530;28;20184;-96
2021/11/11 16:04:11;;;;;;;38.27;32.37;;;;;;;;;;4981173;28;20196;-96
2021/11/11 16:24:26;;;;;;;21.60;17.83;;;;;;;;;;5019507;23;20263;-96
2021/11/11 16:32:05;;;;;;;19.27;15.77;;;;;;;;;;5216803;23;20237;-96
2021/11/11 16:43:33;;;;;;;5.00;4.33;;;;;;;;;;4975554;28;20228;-94
2021/11/11 16:46:00;;;;;;;9.23;8.30;;;;;;;;;;4975093;28;20284;-94
2021/11/11 16:48:27;;;;;;;11.37;8.10;;;;;;;;;;4975446;28;20224;-93
2021/11/11 16:50:55;;;;;;;11.27;8.60;;;;;;;;;;4975180;28;20263;-94
2021/11/11 16:53:23;;;;;;;13.40;9.33;;;;;;;;;;4975393;28;20216;-94
2021/11/11 16:55:51;;;;;;;13.30;10.33;;;;;;;;;;4975187;28;20197;-94
2021/11/11 16:58:18;;;;;;;14.30;9.23;;;;;;;;;;4975159;28;20291;-93
2021/11/11 17:00:47;;;;;;;34.80;23.50;;;;;;;;;;4975298;28;20201;-94
2021/11/11 17:03:15;;;;;;;32.00;21.90;;;;;;;;;;4975240;28;20205;-93
2021/11/11 17:05:42;;;;;;;30.17;21.37;;;;;;;;;;4975442;28;20654;-94
2021/11/11 17:08:10;;;;;;;22.80;14.03;;;;;;;;;;4975265;28;20654;-94
2021/11/11 17:10:37;;;;;;;21.00;16.53;;;;;;;;;;4975092;28;20236;-94
2021/11/11 17:13:06;;;;;;;19.87;14.57;;;;;;;;;;4975134;28;20221;-93
2021/11/11 17:15:35;;;;;;;15.67;13.03;;;;;;;;;;4974925;28;20555;-94
2021/11/11 17:18:05;;;;;;;18.23;11.77;;;;;;;;;;4974871;28;20209;-93
2021/11/11 17:20:33;;;;;;;11.80;10.60;;;;;;;;;;4974848;28;20201;-93
2021/11/11 17:23:02;;;;;;;7.43;6.27;;;;;;;;;;4974917;28;20208;-93
2021/11/11 17:25:34;;;;;;;4.40;3.93;;;;;;;;;;4974723;28;20197;-93
2021/11/11 17:28:14;;;;;;;3.20;2.90;;;;;;;;;;4974698;28;20197;-92
2021/11/11 17:30:44;;;;;;;13.73;8.30;;;;;;;;;;4974645;28;20204;-94
2021/11/11 17:33:14;;;;;;;54.23;27.87;;;;;;;;;;4974504;28;20197;-94
2021/11/11 17:35:42;;;;;;;54.30;40.37;;;;;;;;;;4974763;28;20284;-94
2021/11/11 17:38:09;;;;;;;58.77;43.57;;;;;;;;;;4974570;28;20193;-94
2021/11/11 17:40:37;;;;;;;19.50;16.33;;;;;;;;;;4974421;28;20295;-94
2021/11/11 17:43:06;;;;;;;7.87;6.50;;;;;;;;;;4974616;28;20280;-94
2021/11/11 17:45:38;;;;;;;5.80;4.80;;;;;;;;;;4977008;28;20239;-93
2021/11/11 17:48:13;;;;;;;5.00;4.50;;;;;;;;;;4978646;28;20298;-94
2021/11/11 17:50:54;;;;;;;81.13;39.37;;;;;;;;;;4974587;28;20199;-94
2021/11/11 17:53:23;;;;;;;42.67;23.60;;;;;;;;;;4974582;28;20669;-95
2021/11/11 17:55:54;;;;;;;30.37;14.50;;;;;;;;;;4974754;28;20220;-94
2021/11/11 17:58:23;;;;;;;78.77;43.77;;;;;;;;;;4974397;28;20201;-94
2021/11/11 18:00:52;;;;;;;22.37;16.33;;;;;;;;;;4974259;28;20196;-94
2021/11/11 18:03:21;;;;;;;27.53;16.10;;;;;;;;;;4974219;28;20197;-94
2021/11/11 18:05:52;;;;;;;21.70;14.77;;;;;;;;;;4974360;28;20688;-94
2021/11/11 18:08:29;;;;;;;23.67;13.37;;;;;;;;;;4974091;28;20201;-94
2021/11/11 18:10:58;;;;;;;7.43;5.20;;;;;;;;;;4974665;28;20208;-94
2021/11/11 18:13:27;;;;;;;35.93;26.27;;;;;;;;;;4974603;28;20205;-93
2021/11/11 18:15:58;;;;;;;44.23;29.70;;;;;;;;;;4974054;28;20197;-94
2021/11/11 18:18:26;;;;;;;33.07;24.47;;;;;;;;;;4974369;28;20229;-93
2021/11/11 18:20:54;;;;;;;15.17;12.77;;;;;;;;;;4974055;28;20283;-94
2021/11/11 18:23:21;;;;;;;14.13;9.80;;;;;;;;;;4973952;28;20220;-94
2021/11/11 18:25:49;;;;;;;12.77;8.33;;;;;;;;;;4974013;28;20208;-93
2021/11/11 18:28:22;;;;;;;22.03;14.97;;;;;;;;;;4973962;28;20208;-94
2021/11/11 18:30:52;;;;;;;28.77;23.53;;;;;;;;;;4974013;28;20260;-94
2021/11/11 18:33:21;;;;;;;27.40;18.63;;;;;;;;;;4973921;28;20204;-94
2021/11/11 18:35:53;;;;;;;17.53;14.10;;;;;;;;;;4973774;28;20224;-94
2021/11/11 18:38:22;;;;;;;27.43;22.57;;;;;;;;;;4973799;28;20354;-93
2021/11/11 18:40:51;;;;;;;33.47;25.00;;;;;;;;;;4973742;28;20746;-94
2021/11/11 18:43:26;;;;;;;25.57;19.30;;;;;;;;;;4973995;28;20197;-95
2021/11/11 18:46:00;;;;;;;17.93;13.03;;;;;;;;;;4973889;28;20207;-94
2021/11/11 18:48:30;;;;;;;9.97;8.33;;;;;;;;;;4973800;28;20204;-94
2021/11/11 18:51:01;;;;;;;13.70;10.13;;;;;;;;;;4974145;28;20201;-94
2021/11/11 18:53:29;;;;;;;17.90;14.57;;;;;;;;;;4973840;28;20212;-93
2021/11/11 18:55:58;;;;;;;13.03;9.70;;;;;;;;;;4973657;28;20202;-94
2021/11/11 18:58:27;;;;;;;24.97;14.97;;;;;;;;;;4973575;28;20193;-93
2021/11/11 19:00:56;;;;;;;34.53;20.60;;;;;;;;;;4970431;28;20630;-93
2021/11/11 19:03:25;;;;;;;61.10;36.43;;;;;;;;;;4954470;29;20198;-94
2021/11/11 19:05:57;;;;;;;46.23;32.70;;;;;;;;;;4969637;28;20219;-96
2021/11/11 19:08:28;;;;;;;17.37;12.77;;;;;;;;;;4973915;28;20201;-96
2021/11/11 19:10:56;;;;;;;11.30;7.40;;;;;;;;;;4977018;28;20189;-96
2021/11/11 19:13:27;;;;;;;6.07;4.80;;;;;;;;;;4977373;28;20745;-96
2021/11/11 19:15:54;;;;;;;13.80;9.40;;;;;;;;;;4977092;28;20591;-95
2021/11/11 19:18:32;;;;;;;23.17;20.23;;;;;;;;;;4977052;28;20228;-95
2021/11/11 19:21:00;;;;;;;16.70;13.50;;;;;;;;;;4977065;28;20288;-96
2021/11/11 19:23:29;;;;;;;26.33;20.87;;;;;;;;;;4977067;28;20213;-96
2021/11/11 19:25:57;;;;;;;25.03;19.63;;;;;;;;;;4977018;28;20259;-96
2021/11/11 19:28:25;;;;;;;21.37;17.17;;;;;;;;;;4976788;28;20212;-96
2021/11/11 19:30:53;;;;;;;16.60;14.90;;;;;;;;;;4976616;28;20232;-96
2021/11/11 19:33:21;;;;;;;19.57;17.47;;;;;;;;;;4976424;28;20244;-96
2021/11/11 19:35:53;;;;;;;14.83;13.13;;;;;;;;;;4976771;28;20280;-96
2021/11/11 19:38:49;;;;;;;14.47;13.07;;;;;;;;;;4976630;28;20207;-96
2021/11/11 19:44:33;;;;;;;8.40;7.60;;;;;;;;;;4932422;29;20592;-94
2021/11/11 19:47:15;;;;;;;17.83;15.93;;;;;;;;;;4957305;29;20206;-95
2021/11/11 19:50:00;;;;;;;12.80;11.47;;;;;;;;;;4957176;29;20334;-96
2021/11/11 19:55:27;;;;;;;15.53;13.57;;;;;;;;;;4919925;29;20214;-96
2021/11/11 19:58:12;;;;;;;16.30;14.60;;;;;;;;;;4956967;29;20204;-95
2021/11/11 20:03:32;;;;;;;11.33;9.23;;;;;;;;;;4956723;29;20206;-96
2021/11/11 20:09:05;;;;;;;6.17;4.17;;;;;;;;;;4922255;29;20209;-96
2021/11/11 20:11:35;;;;;;;23.50;16.90;;;;;;;;;;4956731;29;20218;-96
2021/11/11 20:31:20;;;;;;;6.43;5.80;;;;;;;;;;4939385;29;20201;-95
2021/11/11 20:39:34;;;;;;;23.93;17.83;;;;;;;;;;4952344;28;20316;-96
2021/11/11 20:45:18;;;;;;;13.07;10.23;;;;;;;;;;4935576;29;20210;-95
2021/11/11 20:48:14;;;;;;;11.87;8.97;;;;;;;;;;4935528;29;20201;-95
2021/11/11 20:50:53;;;;;;;11.73;8.83;;;;;;;;;;4935049;29;20213;-93
2021/11/11 20:53:39;;;;;;;10.47;7.07;;;;;;;;;;4935383;29;20210;-94
2021/11/11 20:59:04;;;;;;;39.90;28.73;;;;;;;;;;4916453;29;20221;-94
2021/11/11 21:01:41;;;;;;;9.87;7.47;;;;;;;;;;4935327;29;20285;-94
2021/11/11 21:04:10;;;;;;;6.87;6.10;;;;;;;;;;4934710;29;20708;-93
2021/11/11 21:06:45;;;;;;;5.43;4.33;;;;;;;;;;4934934;29;20202;-93
2021/11/11 21:09:25;;;;;;;5.37;3.03;;;;;;;;;;4934772;29;20269;-93
2021/11/11 21:11:58;;;;;;;5.57;4.83;;;;;;;;;;4935189;29;20694;-93
2021/11/11 21:14:32;;;;;;;8.87;5.90;;;;;;;;;;4935201;29;20695;-93
2021/11/11 21:17:12;;;;;;;11.90;7.93;;;;;;;;;;4972447;28;20628;-93